PUEBLO AVIATION WEATHER

 


 

 

Check out the latest edition of "The Front" - A Regional Newsletter dedicated to Aviation Weather

Aviation Weather Center Standard Briefing 

 


 

 

Colorado Springs Airport(KCOS) Aviation Decision Support Information Page  

 

 

  Terminal Aerodrome Forecasts

Interactive TAF Java Tool

Plotted TAFs and/or Text TAFs

Text TAFs

Pueblo KPUB

000
FTUS45 KPUB 182320
TAFPUB
TAF
KPUB 182320Z 1900/1924 13012KT P6SM FEW150
     FM190200 10007KT P6SM FEW120
     FM190700 VRB05KT P6SM SKC
     FM191800 12010KT P6SM SCT120 SCT200=
Colorado Springs KCOS
000
FTUS45 KPUB 182320
TAFCOS
TAF
KCOS 182320Z 1900/1924 14012KT P6SM SCT120
     FM190200 VRB06KT P6SM FEW120
     FM190500 36006KT P6SM SKC
     FM191600 15008KT P6SM FEW100 SCT200=
Alamosa KALS

000
FTUS45 KPUB 182320
TAFALS
TAF
KALS 182320Z 1900/1924 VRB05KT P6SM FEW120
     FM190400 VRB04KT P6SM SKC
     FM191900 28008KT P6SM SCT120 SCT200=
Denver KDEN

000
FTUS45 KBOU 182331
TAFDEN
TAF
KDEN 182331Z 1900/2006 16011G17KT P6SM FEW100 FEW200
     FM190400 19013KT P6SM FEW200
     FM191400 24007KT P6SM FEW140 SCT220
     FM191600 33007KT P6SM SCT140 SCT220
     FM191900 02008KT P6SM SCT090 SCT140
     FM200100 22007KT P6SM SCT090 SCT140 BKN200=
  

 

Pilot Reports (PIREPs)

Aircraft Icing U.S. NESE
NCSC
NWSW
Sky Conditions U.S. NESE
NCSC
NWSW
Turbulence U.S. NESE
NCSC
NWSW

 

SOARING FORECAST

Experimental product for soaring guidance, Southern Front Range

 

 

 

METARS:

Pueblo


Colorado Springs


Denver

Alamosa


 

 


 

 

 

 

RADAR AND SATELLITE

radar
pueblo radar
 

 

Latest Radar from Pueblo
Click Image to Enlarge

 

IR Satellite
Colorado Infrared Satellite - Click to enlarge
Latest Colorado IR Satellite Image
Click Image to Enlarge
Vis Satellite
Colorado Visible Satellite - Click to enlarge
Latest Colorado Visible Satellite Image
Click Image to Enlarge

 

WATCHES AND WARNINGS

TEXT OF ALL COLORADO WARNINGS

 

Latest Watches And Warnings

 

 

CENTER WEATHER ADVISORIES

 

AIRMETS/SIGMETS

 

 

 


 

FORECAST DISCUSSION: FA

 

 


 

OBSERVED UPPER AIR WINDS

(COURTESY RAP/NCAR)

 

 


 

FORECAST UPPER AIR WINDS

 

 


 

SURFACE OBSERVATIONS

(COURTESY RAP/NCAR)

 

 

 :

 

NOTAMS:

https://www.notams.jcs.mil/geo/radiusForm.html

 

 

 

 

 

 

 

 

 

 

 

 

 

 

 

 


 

 

Constant Pressure Plots From the Storm Prediction Center

Link to the Sky Spotter Program Homepage

 

Other Aviation Links

NWS Aviation Weather Center

ADDS - Aviation Page
FAA Homepage

 


 

 

 

 

 

 

 

 

 

 

 

 

 

 

 

 

 

 

 

 

 

 

 

 

 

 

 

 

 

 

 

 

 

Plots of AIRMETS / SIGMETS

Text AIRMETS / SIGMETS by Center 

Interactive AIRMET/SIGMET Java Tool

 

 



USA.gov is the U.S. government's official web portal to all federal, state and local government web resources and services.